Decoded Metar for LFSL (BRIVE in FRANCE) (IATA:N/A) | Meteo·Mobile Aviation Weather
aviador You're here:

LFSL Decoded Metar

BRIVE in FRANCE
Report Time2019-02-22 00:00:00
UTC Time2019-02-22 00:23:09
Flight Rules vfr VFR
WindCalm
Visibility9999 m
Phenomena:N/A
Clouds:N/A
Expected CloudBase > 800 ft AGL from Temp-Dew spread
CeilingNone
Temp01°C (ISA -12)
Dew Point-1°C (87% RH)
AAT-1.1°C
QNH1031 hPa
Density Alt-971 ft
Elevation1,016 ft
Report Wrong Elevation
Raw Report
LFSL 220000Z AUTO 00000KT CAVOK 01/M01 Q1031=

Extra information for LFSL:More info

Metar Taf Metar & Taf Last 4 Metars F.Rules Stats Wind Profile Meteogram Temp Stats Airport Information Weather charts Add Link Nearby VenuesMetar ALERT Operation Metar Decoded Social comments